Time;durP1;ratioP1;P1;durP2;ratioP2;P2;SDS_P1;SDS_P2;PMS_P1;PMS_P2;Temp;Humidity;BMP_temperature;BMP_pressure;BME280_temperature;BME280_humidity;BME280_pressure;Samples;Min_cycle;Max_cycle;Signal;HPM_P1;HPM_P2
2024/02/14 00:02:17;;;;;;;12.20;6.68;;;;;;;;;;4839044;29;20025;-77
2024/02/14 00:04:44;;;;;;;12.55;7.03;;;;;;;;;;4839552;29;20030;-78
2024/02/14 00:07:10;;;;;;;9.85;6.65;;;;;;;;;;4839602;29;20028;-77
2024/02/14 00:09:36;;;;;;;12.20;7.47;;;;;;;;;;4839231;29;20078;-78
2024/02/14 00:12:02;;;;;;;11.65;7.40;;;;;;;;;;4839087;29;20481;-76
2024/02/14 00:14:28;;;;;;;11.00;6.95;;;;;;;;;;4839638;29;20038;-77
2024/02/14 00:16:54;;;;;;;11.13;7.05;;;;;;;;;;4839117;29;20385;-77
2024/02/14 00:19:21;;;;;;;12.27;9.00;;;;;;;;;;4839407;29;20030;-76
2024/02/14 00:21:47;;;;;;;15.30;10.82;;;;;;;;;;4839234;29;20026;-77
2024/02/14 00:24:13;;;;;;;11.05;7.60;;;;;;;;;;4838984;29;20541;-75
2024/02/14 00:26:39;;;;;;;11.35;6.20;;;;;;;;;;4839011;29;20018;-77
2024/02/14 00:29:05;;;;;;;10.57;6.45;;;;;;;;;;4839072;29;20041;-77
2024/02/14 00:31:31;;;;;;;8.38;6.43;;;;;;;;;;4838767;29;20038;-78
2024/02/14 00:33:57;;;;;;;9.65;6.57;;;;;;;;;;4838876;29;20037;-76
2024/02/14 00:36:24;;;;;;;15.20;9.55;;;;;;;;;;4838595;29;20041;-77
2024/02/14 00:38:51;;;;;;;18.52;9.55;;;;;;;;;;4839010;29;20088;-77
2024/02/14 00:41:17;;;;;;;18.55;10.70;;;;;;;;;;4838761;29;20022;-77
2024/02/14 00:43:43;;;;;;;14.13;9.10;;;;;;;;;;4838732;29;20074;-77
2024/02/14 00:46:09;;;;;;;20.15;11.57;;;;;;;;;;4827078;29;20108;-77
2024/02/14 00:48:35;;;;;;;36.08;19.85;;;;;;;;;;4838388;29;20026;-77
2024/02/14 00:51:02;;;;;;;72.47;48.10;;;;;;;;;;4838879;29;20042;-77
2024/02/14 00:53:28;;;;;;;11.88;8.07;;;;;;;;;;4838432;29;20036;-77
2024/02/14 00:55:54;;;;;;;17.73;11.88;;;;;;;;;;4838648;29;20129;-77
2024/02/14 00:58:20;;;;;;;15.27;9.88;;;;;;;;;;4838463;29;20033;-77
2024/02/14 01:00:47;;;;;;;11.48;7.47;;;;;;;;;;4838054;29;20033;-77
2024/02/14 01:03:15;;;;;;;16.75;9.02;;;;;;;;;;4838184;29;20022;-77
2024/02/14 01:05:41;;;;;;;12.57;7.53;;;;;;;;;;4837377;29;20553;-76
2024/02/14 01:08:07;;;;;;;11.65;6.10;;;;;;;;;;4838398;29;20018;-76
2024/02/14 01:10:33;;;;;;;15.52;8.02;;;;;;;;;;4838871;29;20025;-78
2024/02/14 01:12:59;;;;;;;13.98;8.38;;;;;;;;;;4838675;29;20034;-76
2024/02/14 01:15:25;;;;;;;11.63;7.65;;;;;;;;;;4838201;29;20482;-77
2024/02/14 01:17:51;;;;;;;9.90;7.03;;;;;;;;;;4838422;29;20084;-77
2024/02/14 01:20:18;;;;;;;10.15;6.45;;;;;;;;;;4838438;29;20030;-77
2024/02/14 01:22:46;;;;;;;11.77;10.00;;;;;;;;;;4838086;29;20034;-77
2024/02/14 01:25:12;;;;;;;14.15;8.82;;;;;;;;;;4838513;29;20034;-77
2024/02/14 01:27:38;;;;;;;13.02;7.82;;;;;;;;;;4838050;29;20034;-77
2024/02/14 01:30:05;;;;;;;12.18;6.68;;;205.20;2252.80;;;;;;4838181;29;20033;-76
2024/02/14 01:32:31;;;;;;;13.30;6.85;;;205.00;2252.80;;;;;;4837977;29;20511;-77
2024/02/14 01:34:57;;;;;;;21.02;10.38;;;205.00;2252.80;;;;;;4822824;29;20045;-76
2024/02/14 01:37:23;;;;;;;11.75;7.47;;;205.00;2252.80;;;;;;4841940;29;20025;-77
2024/02/14 01:39:48;;;;;;;16.10;6.43;;;205.00;2252.80;;;;;;4842075;29;20089;-78
2024/02/14 01:42:14;;;;;;;13.38;8.30;;;205.00;2252.80;;;;;;4841748;29;20034;-77
2024/02/14 01:44:40;;;;;;;9.25;6.43;;;204.90;2252.80;;;;;;4841990;29;20038;-76
2024/02/14 01:47:06;;;;;;;11.35;6.05;;;205.00;2252.80;;;;;;4841733;29;20034;-77
2024/02/14 01:49:33;;;;;;;10.45;6.65;;;204.90;2252.80;;;;;;4841915;29;20017;-77
2024/02/14 01:52:02;;;;;;;30.65;21.63;;;204.80;2252.80;;;;;;4841699;29;20042;-77
2024/02/14 01:54:29;;;;;;;12.38;5.95;;;;;;;;;;4841766;29;20053;-76
2024/02/14 01:56:55;;;;;;;56.55;51.70;;;;;;;;;;4841274;29;20060;-76
2024/02/14 01:59:22;;;;;;;16.88;12.43;;;;;;;;;;4841803;29;20512;-76
2024/02/14 02:01:48;;;;;;;10.88;7.43;;;204.90;2252.80;;;;;;4841536;29;20133;-76
2024/02/14 02:04:14;;;;;;;12.57;6.60;;;204.80;2252.80;;;;;;4841887;29;20166;-77
2024/02/14 02:06:41;;;;;;;12.23;6.57;;;204.80;2252.80;;;;;;4841672;29;20026;-77
2024/02/14 02:09:07;;;;;;;17.58;10.85;;;180.10;2252.80;;;;;;4841378;29;20054;-76
2024/02/14 02:11:48;;;;;;;12.93;7.80;;;204.80;2252.80;;;;;;4841110;29;20041;-77
2024/02/14 02:14:14;;;;;;;11.85;8.32;;;204.80;2252.80;;;;;;4841352;29;20063;-76
2024/02/14 02:16:41;;;;;;;10.48;6.90;;;204.80;2252.80;;;;;;4841315;29;20034;-76
2024/02/14 02:19:09;;;;;;;13.32;9.55;;;180.10;2252.80;;;;;;4829269;29;20120;-76
2024/02/14 02:21:35;;;;;;;13.68;7.95;;;204.80;2252.80;;;;;;4826138;29;20026;-77
2024/02/14 02:24:02;;;;;;;12.88;8.98;;;205.00;2252.80;;;;;;4841447;29;20050;-75
2024/02/14 02:26:28;;;;;;;12.75;8.43;;;180.10;2252.80;;;;;;4840923;29;20086;-77
2024/02/14 02:28:54;;;;;;;11.13;8.70;;;204.80;2252.80;;;;;;4841208;29;20026;-77
2024/02/14 02:31:20;;;;;;;8.27;6.18;;;180.10;2252.80;;;;;;4841361;29;20417;-76
2024/02/14 02:33:46;;;;;;;12.20;6.22;;;180.10;2252.80;;;;;;4841022;29;20113;-77
2024/02/14 02:36:12;;;;;;;16.70;9.57;;;180.10;2252.80;;;;;;4841025;29;20034;-77
2024/02/14 02:38:38;;;;;;;12.95;7.75;;;205.10;2252.80;;;;;;4840965;29;20022;-77
2024/02/14 02:41:07;;;;;;;17.02;10.38;;;180.10;2252.80;;;;;;4840614;29;20022;-77
2024/02/14 02:43:34;;;;;;;8.15;6.35;;;180.10;2252.80;;;;;;4840820;29;20026;-77
2024/02/14 02:46:00;;;;;;;11.13;7.10;;;180.10;2252.80;;;;;;4840448;29;20030;-77
2024/02/14 02:48:26;;;;;;;10.50;7.30;;;179.90;2252.80;;;;;;4840895;29;20038;-77
2024/02/14 02:50:52;;;;;;;9.32;6.68;;;180.10;2252.80;;;;;;4840757;29;20053;-77
2024/02/14 02:53:19;;;;;;;33.80;21.17;;;;;;;;;;4840824;29;21411;-77
2024/02/14 02:55:45;;;;;;;11.25;7.63;;;;;;;;;;4840808;29;20102;-77
2024/02/14 02:58:11;;;;;;;9.25;7.03;;;;;;;;;;4840750;29;20113;-78
2024/02/14 03:00:37;;;;;;;12.27;10.77;;;204.80;2252.80;;;;;;4840707;29;20117;-77
2024/02/14 03:03:08;;;;;;;9.38;5.38;;;;;;;;;;4840660;29;20105;-77
2024/02/14 03:05:34;;;;;;;11.10;6.47;;;;;;;;;;4828860;29;20030;-77
2024/02/14 03:08:00;;;;;;;23.33;8.63;;;;;;;;;;4840750;29;20033;-77
2024/02/14 03:10:27;;;;;;;13.85;7.38;;;;;;;;;;4840306;29;20060;-77
2024/02/14 03:12:54;;;;;;;8.48;5.88;;;;;;;;;;4840309;29;20561;-77
2024/02/14 03:15:21;;;;;;;11.32;7.55;;;;;;;;;;4840304;29;20522;-78
2024/02/14 03:17:47;;;;;;;14.35;6.75;;;;;;;;;;4840272;29;20037;-77
2024/02/14 03:20:13;;;;;;;9.73;6.30;;;;;;;;;;4840578;29;20108;-77
2024/02/14 03:22:44;;;;;;;10.48;6.57;;;;;;;;;;4840397;29;20032;-76
2024/02/14 03:25:20;;;;;;;8.52;5.40;;;;;;;;;;4840413;29;20050;-76
2024/02/14 03:27:49;;;;;;;10.88;6.82;;;;;;;;;;4823489;29;20436;-76
2024/02/14 03:30:16;;;;;;;8.30;7.10;;;;;;;;;;4840044;29;20136;-76
2024/02/14 03:32:42;;;;;;;10.10;7.22;;;180.00;2252.80;;;;;;4839957;29;20056;-77
2024/02/14 03:35:10;;;;;;;8.80;6.03;;;179.80;2252.80;;;;;;4840389;29;20029;-76
2024/02/14 03:37:37;;;;;;;9.43;5.55;;;179.80;2252.80;;;;;;4839905;29;20124;-77
2024/02/14 03:40:05;;;;;;;10.60;6.43;;;179.70;2252.80;;;;;;4839877;29;20034;-76
2024/02/14 03:42:30;;;;;;;9.05;6.35;;;179.70;2252.80;;;;;;4840047;29;20037;-77
2024/02/14 03:45:02;;;;;;;10.65;7.25;;;179.80;2252.80;;;;;;4839939;29;20022;-76
2024/02/14 03:47:32;;;;;;;9.43;5.68;;;179.80;2252.80;;;;;;4839734;29;20022;-77
2024/02/14 03:49:59;;;;;;;8.18;5.43;;;179.80;2252.80;;;;;;4840008;29;20025;-77
2024/02/14 03:52:25;;;;;;;9.93;6.88;;;179.80;2252.80;;;;;;4839378;29;20053;-76
2024/02/14 03:54:50;;;;;;;8.60;6.43;;;179.90;2252.80;;;;;;4839807;29;20505;-75
2024/02/14 03:57:17;;;;;;;9.10;7.25;;;179.90;2252.80;;;;;;4838727;29;20426;-76
2024/02/14 03:59:46;;;;;;;11.63;7.03;;;179.90;2252.80;;;;;;4839661;29;20060;-76
2024/02/14 04:02:13;;;;;;;11.70;8.00;;;179.90;2252.80;;;;;;4839637;29;20050;-76
2024/02/14 04:04:42;;;;;;;9.60;5.90;;;180.00;2252.80;;;;;;4839778;29;20426;-75
2024/02/14 04:07:08;;;;;;;13.48;6.85;;;180.00;2252.80;;;;;;4839839;29;20355;-76
2024/02/14 04:09:34;;;;;;;12.30;7.82;;;179.90;2252.80;;;;;;4839186;29;20037;-78
2024/02/14 04:12:00;;;;;;;10.60;7.15;;;179.80;2252.80;;;;;;4839573;29;20057;-77
2024/02/14 04:14:26;;;;;;;10.65;6.57;;;179.80;2252.80;;;;;;4839212;29;20473;-77
2024/02/14 04:16:52;;;;;;;9.50;5.65;;;179.90;2252.80;;;;;;4839146;29;20044;-77
2024/02/14 04:19:18;;;;;;;11.32;6.55;;;179.80;2252.80;;;;;;4839603;29;20110;-78
2024/02/14 04:21:44;;;;;;;11.82;6.53;;;179.70;2252.80;;;;;;4835742;29;20027;-76
2024/02/14 04:24:10;;;;;;;12.80;7.32;;;179.60;2252.80;;;;;;4823655;29;20137;-77
2024/02/14 04:26:36;;;;;;;10.52;6.40;;;179.60;2252.80;;;;;;4826124;29;20027;-77
2024/02/14 04:29:02;;;;;;;12.77;7.68;;;179.50;2252.80;;;;;;4833563;29;20044;-77
2024/02/14 04:31:29;;;;;;;11.52;6.97;;;179.70;2252.80;;;;;;4838883;29;20106;-76
2024/02/14 04:33:56;;;;;;;9.57;6.35;;;179.70;2252.80;;;;;;4839062;29;20078;-76
2024/02/14 04:36:25;;;;;;;12.38;7.65;;;179.70;2252.80;;;;;;4839209;29;20025;-77
2024/02/14 04:38:51;;;;;;;9.00;6.13;;;179.70;2252.80;;;;;;4839004;29;20041;-77
2024/02/14 04:41:17;;;;;;;16.65;6.70;;;179.60;2252.80;;;;;;4838782;29;20488;-78
2024/02/14 04:43:44;;;;;;;11.93;7.25;;;179.50;2252.80;;;;;;4838851;29;20066;-77
2024/02/14 04:46:10;;;;;;;9.98;6.75;;;179.40;2252.80;;;;;;4838796;29;20025;-77
2024/02/14 04:48:36;;;;;;;13.60;8.23;;;179.40;2252.80;;;;;;4838796;29;20038;-78
2024/02/14 04:51:04;;;;;;;7.95;5.97;;;179.50;2252.80;;;;;;4838633;29;20384;-77
2024/02/14 04:53:30;;;;;;;11.05;8.23;;;179.50;2252.80;;;;;;4838584;29;20395;-78
2024/02/14 04:55:56;;;;;;;9.60;7.03;;;179.50;2252.80;;;;;;4838290;29;20130;-76
2024/02/14 04:58:22;;;;;;;12.60;6.82;;;179.60;2252.80;;;;;;4838764;29;20034;-77
2024/02/14 05:00:48;;;;;;;10.55;7.03;;;179.60;2252.80;;;;;;4838596;29;20022;-78
2024/02/14 05:03:15;;;;;;;10.07;6.40;;;179.50;2252.80;;;;;;4838652;29;20545;-77
2024/02/14 05:05:41;;;;;;;12.65;6.65;;;179.50;2252.80;;;;;;4838644;29;20055;-77
2024/02/14 05:08:07;;;;;;;9.90;6.45;;;179.40;2252.80;;;;;;4838465;29;20038;-77
2024/02/14 05:10:33;;;;;;;9.05;6.18;;;179.40;2252.80;;;;;;4838125;29;20033;-77
2024/02/14 05:13:01;;;;;;;9.52;6.22;;;179.40;2252.80;;;;;;4838542;29;20034;-77
2024/02/14 05:15:26;;;;;;;11.00;6.60;;;179.30;2252.80;;;;;;4838239;29;20402;-78
2024/02/14 05:17:52;;;;;;;11.10;6.30;;;179.40;2252.80;;;;;;4838208;29;20034;-75
2024/02/14 05:20:18;;;;;;;31.30;23.13;;;179.40;2252.80;;;;;;4838586;29;20465;-77
2024/02/14 05:22:44;;;;;;;9.20;6.93;;;179.30;2252.80;;;;;;4838301;29;20029;-77
2024/02/14 05:25:10;;;;;;;21.08;7.40;;;179.40;2252.80;;;;;;4838457;29;20101;-77
2024/02/14 05:27:37;;;;;;;13.15;8.30;;;179.40;2252.80;;;;;;4838238;29;20150;-77
2024/02/14 05:30:06;;;;;;;11.30;7.07;;;179.30;2252.80;;;;;;4838285;29;20481;-76
2024/02/14 05:32:33;;;;;;;11.32;7.18;;;179.40;2252.80;;;;;;4837943;29;20037;-77
2024/02/14 05:34:59;;;;;;;9.15;6.70;;;179.40;2252.80;;;;;;4838515;29;20030;-77
2024/02/14 05:37:27;;;;;;;11.98;6.25;;;179.40;2252.80;;;;;;4837894;29;20026;-77
2024/02/14 05:39:55;;;;;;;14.38;8.60;;;179.40;2252.80;;;;;;4838389;29;20537;-77
2024/02/14 05:42:22;;;;;;;10.35;7.53;;;179.40;2252.80;;;;;;4840237;29;20030;-77
2024/02/14 05:44:48;;;;;;;9.98;7.40;;;179.50;2252.80;;;;;;4846456;29;20389;-76
2024/02/14 05:47:14;;;;;;;11.57;9.80;;;179.40;2252.80;;;;;;4837940;29;20073;-77
2024/02/14 05:49:40;;;;;;;10.50;8.05;;;179.40;2252.80;;;;;;4838870;29;20034;-82
2024/02/14 05:52:07;;;;;;;11.10;6.93;;;179.30;2252.80;;;;;;4838143;29;20042;-83
2024/02/14 05:54:33;;;;;;;8.50;5.70;;;179.30;2252.80;;;;;;4832933;29;20054;-82
2024/02/14 05:56:59;;;;;;;12.57;7.32;;;179.40;2252.80;;;;;;4827458;29;20026;-85
2024/02/14 05:59:25;;;;;;;9.57;6.38;;;179.40;2252.80;;;;;;4832819;29;20036;-82
2024/02/14 06:01:51;;;;;;;11.90;7.40;;;179.50;2252.80;;;;;;4838624;29;20030;-84
2024/02/14 06:04:17;;;;;;;72.13;49.38;;;179.50;2252.80;;;;;;4838578;29;20150;-84
2024/02/14 06:06:43;;;;;;;11.85;7.75;;;179.50;2252.80;;;;;;4837666;29;20083;-84
2024/02/14 06:09:11;;;;;;;13.18;9.60;;;179.40;2252.80;;;;;;4835962;29;20081;-82
2024/02/14 06:11:40;;;;;;;14.18;9.20;;;179.50;2252.80;;;;;;4838203;29;20113;-84
2024/02/14 06:14:07;;;;;;;15.85;8.10;;;179.60;2252.80;;;;;;4838184;29;20022;-85
2024/02/14 06:16:33;;;;;;;11.85;7.88;;;179.80;2252.80;;;;;;4837723;29;20036;-75
2024/02/14 06:18:59;;;;;;;12.52;7.07;;;179.70;2252.80;;;;;;4833018;29;20547;-84
2024/02/14 06:21:26;;;;;;;11.90;7.68;;;179.60;2252.80;;;;;;4836862;29;20033;-85
2024/02/14 06:23:52;;;;;;;16.50;8.50;;;179.70;2252.80;;;;;;4841340;29;20544;-85
2024/02/14 06:26:18;;;;;;;10.68;7.20;;;179.60;2252.80;;;;;;4841677;29;20034;-84
2024/02/14 06:28:46;;;;;;;23.08;13.57;;;179.70;2252.80;;;;;;4829241;29;20037;-83
2024/02/14 06:31:12;;;;;;;16.42;9.23;;;179.70;2252.80;;;;;;4841590;29;20050;-82
2024/02/14 06:33:38;;;;;;;13.20;7.85;;;179.80;2252.80;;;;;;4841433;29;20041;-81
2024/02/14 06:36:05;;;;;;;12.75;8.95;;;179.80;2252.80;;;;;;4841172;29;20030;-83
2024/02/14 06:38:33;;;;;;;12.65;8.13;;;179.80;2252.80;;;;;;4840291;29;20048;-85
2024/02/14 06:41:00;;;;;;;16.35;11.20;;;179.90;2252.80;;;;;;4841429;29;20034;-85
2024/02/14 06:43:26;;;;;;;12.25;8.38;;;179.90;2252.80;;;;;;4841324;29;20105;-77
2024/02/14 06:45:51;;;;;;;10.85;8.27;;;180.00;2252.80;;;;;;4839605;29;20173;-84
2024/02/14 06:48:21;;;;;;;11.82;8.57;;;180.00;2252.80;;;;;;4841240;29;20026;-81
2024/02/14 06:50:47;;;;;;;10.57;7.50;;;180.00;2252.80;;;;;;4841267;29;20082;-77
2024/02/14 06:53:13;;;;;;;12.10;7.75;;;180.00;2252.80;;;;;;4840405;29;20042;-76
2024/02/14 06:55:38;;;;;;;12.38;8.85;;;180.00;2252.80;;;;;;4840725;29;20042;-83
2024/02/14 06:58:04;;;;;;;13.57;8.30;;;180.00;2252.80;;;;;;4840977;29;20113;-81
2024/02/14 07:00:30;;;;;;;12.27;7.78;;;180.10;2252.80;;;;;;4841330;29;20649;-80
2024/02/14 07:02:56;;;;;;;14.02;9.35;;;180.10;2252.80;;;;;;4840764;29;20038;-82
2024/02/14 07:05:22;;;;;;;12.52;9.57;;;204.80;2252.80;;;;;;4840948;29;20018;-84
2024/02/14 07:07:47;;;;;;;10.30;8.00;;;204.80;2252.80;;;;;;4840839;29;20030;-79
2024/02/14 07:10:13;;;;;;;14.18;7.28;;;204.90;2252.80;;;;;;4845272;29;20090;-82
2024/02/14 07:12:39;;;;;;;15.20;8.15;;;204.80;2252.80;;;;;;4848653;29;20098;-84
2024/02/14 07:15:06;;;;;;;12.68;9.60;;;204.80;2252.80;;;;;;4840350;29;20423;-81
2024/02/14 07:17:31;;;;;;;18.58;14.02;;;205.00;2252.80;;;;;;4840715;29;20219;-86
2024/02/14 07:19:57;;;;;;;15.10;8.43;;;205.00;2252.80;;;;;;4840699;29;20033;-84
2024/02/14 07:22:23;;;;;;;12.43;8.20;;;205.10;2252.80;;;;;;4840292;29;20034;-76
2024/02/14 07:24:49;;;;;;;17.13;10.68;;;205.20;2252.80;;;;;;4840697;29;20030;-79
2024/02/14 07:27:16;;;;;;;13.38;9.32;;;205.20;2252.80;;;;;;4840340;29;20026;-83
2024/02/14 07:29:42;;;;;;;14.95;10.48;;;205.20;2252.80;;;;;;4839633;29;20090;-84
2024/02/14 07:32:08;;;;;;;19.65;10.73;;;205.30;2252.80;;;;;;4839468;29;20146;-84
2024/02/14 07:34:34;;;;;;;14.27;7.72;;;205.50;2252.80;;;;;;4840290;29;20058;-81
2024/02/14 07:36:59;;;;;;;17.88;9.93;;;205.50;2252.80;;;;;;4840349;29;20030;-84
2024/02/14 07:39:25;;;;;;;12.00;8.43;;;230.40;2252.80;;;;;;4840044;29;20109;-77
2024/02/14 07:41:51;;;;;;;12.90;8.45;;;;;;;;;;4840415;29;20026;-79
2024/02/14 07:44:18;;;;;;;18.40;10.45;;;230.80;2252.80;;;;;;4848730;29;20029;-75
2024/02/14 07:46:43;;;;;;;15.85;9.20;;;230.80;2252.80;;;;;;4841597;29;20477;-77
2024/02/14 07:49:13;;;;;;;12.35;8.35;;;230.90;2252.80;;;;;;4838337;29;20058;-74
2024/02/14 07:51:38;;;;;;;9.10;6.65;;;256.00;2252.80;;;;;;4822366;29;20067;-82
2024/02/14 07:54:05;;;;;;;15.55;8.80;;;231.30;2252.80;;;;;;4821746;29;20058;-84
2024/02/14 07:56:31;;;;;;;13.52;9.40;;;231.30;2252.80;;;;;;4828709;29;20474;-82
2024/02/14 07:58:57;;;;;;;11.90;8.15;;;256.20;2252.80;;;;;;4839074;29;20029;-78
2024/02/14 08:01:24;;;;;;;16.70;10.40;;;256.80;2252.80;;;;;;4839265;29;20026;-75
2024/02/14 08:03:49;;;;;;;15.07;12.27;;;308.10;2304.00;;;;;;4827649;29;20065;-83
2024/02/14 08:06:15;;;;;;;18.52;12.10;;;333.10;2252.80;;;;;;4839751;29;20057;-86
2024/02/14 08:08:41;;;;;;;14.82;8.07;;;308.10;2252.80;;;;;;4826052;29;20026;-86
2024/02/14 08:11:07;;;;;;;11.52;8.23;;;308.10;2278.40;;;;;;4832245;29;20038;-81
2024/02/14 08:13:34;;;;;;;13.50;8.70;;;333.10;2227.20;;;;;;4827586;29;20469;-81
2024/02/14 08:16:00;;;;;;;35.15;31.65;;;307.90;2227.20;;;;;;4813186;29;20482;-86
2024/02/14 08:18:27;;;;;;;13.18;8.35;;;307.50;2304.00;;;;;;4842424;29;20105;-80
2024/02/14 08:20:53;;;;;;;10.98;8.10;;;282.50;2278.40;;;;;;4846598;29;20033;-78
2024/02/14 08:23:19;;;;;;;21.40;11.73;;;307.40;2304.00;;;;;;4826850;29;20034;-84
2024/02/14 08:25:46;;;;;;;13.45;9.05;;;333.60;2201.60;;;;;;4839549;29;20025;-83
2024/02/14 08:28:12;;;;;;;10.98;8.65;;;;;;;;;;4838769;29;20064;-82
2024/02/14 08:30:38;;;;;;;18.15;15.07;;;;;;;;;;4839097;29;20030;-80
2024/02/14 08:33:04;;;;;;;16.55;13.45;;;;;;;;;;4838302;29;20038;-81
2024/02/14 08:35:30;;;;;;;15.40;11.07;;;;;;;;;;4838598;29;20025;-79
2024/02/14 08:37:57;;;;;;;9.70;7.95;;;;;;;;;;4839141;29;20041;-83
2024/02/14 08:40:22;;;;;;;12.25;9.93;;;358.90;2073.60;;;;;;4837098;29;20591;-82
2024/02/14 08:42:48;;;;;;;12.65;9.00;;;409.60;1996.80;;;;;;4836936;29;20423;-80
2024/02/14 08:45:14;;;;;;;20.38;17.33;;;436.10;1868.80;;;;;;4835540;29;20026;-85
2024/02/14 08:47:43;;;;;;;11.18;8.82;;;461.50;1766.40;;;;;;4836111;29;20030;-84
2024/02/14 08:50:09;;;;;;;14.88;11.70;;;486.80;1715.20;;;;;;4835221;29;20048;-83
2024/02/14 08:52:36;;;;;;;18.27;13.75;;;512.10;1638.40;;;;;;4835777;29;20030;-85
2024/02/14 08:55:02;;;;;;;19.75;15.60;;;512.80;1612.80;;;;;;4836012;29;20058;-81
2024/02/14 08:57:28;;;;;;;20.40;18.30;;;538.30;1561.60;;;;;;4839139;29;20018;-85
2024/02/14 08:59:54;;;;;;;33.42;28.15;;;563.40;1536.00;;;;;;4832468;29;20030;-78
2024/02/14 09:02:22;;;;;;;21.25;19.00;;;563.60;1510.40;;;;;;4838226;29;20542;-86
2024/02/14 09:04:48;;;;;;;22.92;20.27;;;589.10;1484.80;;;;;;4835163;29;20485;-83
2024/02/14 09:07:14;;;;;;;17.75;13.93;;;589.70;1433.60;;;;;;4838754;29;20071;-75
2024/02/14 09:09:39;;;;;;;17.30;15.35;;;614.60;1433.60;;;;;;4830193;29;20049;-82
2024/02/14 09:12:05;;;;;;;11.95;9.50;;;615.20;1356.80;;;;;;4832590;29;20066;-83
2024/02/14 09:14:31;;;;;;;31.55;27.23;;;614.80;1382.40;;;;;;4832689;29;20026;-80
2024/02/14 09:16:57;;;;;;;18.13;16.02;;;589.40;1382.40;;;;;;4838262;29;20085;-85
2024/02/14 09:19:25;;;;;;;30.25;27.27;;;563.40;1484.80;;;;;;4838060;29;20474;-82
2024/02/14 09:21:51;;;;;;;26.13;17.73;;;563.70;1459.20;;;;;;4837785;29;20152;-83
2024/02/14 09:24:16;;;;;;;21.55;19.13;;;589.50;1382.40;;;;;;4821595;29;20078;-75
2024/02/14 09:26:43;;;;;;;10.23;8.05;;;614.70;1331.20;;;;;;4836324;29;20093;-75
2024/02/14 09:29:10;;;;;;;28.30;25.83;;;589.70;1331.20;;;;;;4826472;29;20042;-75
2024/02/14 09:31:37;;;;;;;13.25;11.85;;;563.70;1408.00;;;;;;4830537;29;20394;-74
2024/02/14 09:34:03;;;;;;;8.32;7.47;;;538.50;1408.00;;;;;;4833242;29;20034;-75
2024/02/14 09:36:31;;;;;;;11.43;8.32;;;512.90;1408.00;;;;;;4831583;29;20037;-74
2024/02/14 09:38:57;;;;;;;8.80;7.03;;;512.30;1484.80;;;;;;4830977;29;20058;-74
2024/02/14 09:41:36;;;;;;;18.65;14.20;;;461.40;1587.20;;;;;;4828703;29;20022;-74
2024/02/14 09:44:03;;;;;;;8.70;7.80;;;;;;;;;;4834995;29;20038;-74
2024/02/14 09:46:30;;;;;;;44.30;34.85;;;435.40;1664.00;;;;;;4833259;29;20410;-74
2024/02/14 09:48:59;;;;;;;19.52;16.05;;;409.70;1740.80;;;;;;4837646;29;20033;-74
2024/02/14 09:51:25;;;;;;;19.83;15.13;;;409.70;2022.40;;;;;;4837026;29;20383;-75
2024/02/14 09:53:54;;;;;;;13.63;11.68;;;384.60;1766.40;;;;;;4837913;29;20133;-77
2024/02/14 09:56:22;;;;;;;12.70;10.13;;;384.10;1792.00;;;;;;4840126;29;20029;-85
2024/02/14 09:58:55;;;;;;;8.90;7.15;;;359.00;1817.60;;;;;;4840944;29;20106;-85
2024/02/14 10:01:23;;;;;;;17.95;12.80;;;358.90;1817.60;;;;;;4841803;29;20033;-77
2024/02/14 10:03:50;;;;;;;9.98;7.65;;;358.80;1843.20;;;;;;4841613;29;20045;-83
2024/02/14 10:06:19;;;;;;;28.35;20.15;;;;;;;;;;4841544;29;20030;-78
2024/02/14 10:08:45;;;;;;;24.85;18.58;;;;;;;;;;4841384;29;20029;-76
2024/02/14 10:11:11;;;;;;;27.27;19.50;;;;;;;;;;4841395;29;20065;-74
2024/02/14 10:13:37;;;;;;;27.38;10.80;;;;;;;;;;4840863;29;20022;-74
2024/02/14 10:16:03;;;;;;;20.50;13.10;;;;;;;;;;4841060;29;20058;-75
2024/02/14 10:18:32;;;;;;;58.83;37.03;;;;;;;;;;4839970;29;20026;-73
2024/02/14 10:20:58;;;;;;;11.93;8.55;;;;;;;;;;4840700;29;20029;-74
2024/02/14 10:23:24;;;;;;;32.15;19.90;;;;;;;;;;4840870;29;20034;-73
2024/02/14 10:25:53;;;;;;;12.68;8.77;;;;;;;;;;4841360;29;20113;-83
2024/02/14 10:28:21;;;;;;;19.42;13.75;;;;;;;;;;4841462;29;20022;-80
2024/02/14 10:30:49;;;;;;;10.93;8.23;;;;;;;;;;4841318;29;20022;-77
2024/02/14 10:33:15;;;;;;;23.05;12.65;;;333.40;1894.40;;;;;;4841187;29;20042;-83
2024/02/14 10:35:42;;;;;;;12.98;8.80;;;333.40;1868.80;;;;;;4841258;29;20026;-81
2024/02/14 10:38:09;;;;;;;15.60;10.43;;;333.30;1894.40;;;;;;4841118;29;20651;-81
2024/02/14 10:40:38;;;;;;;32.40;23.13;;;333.10;1894.40;;;;;;4839636;29;20516;-75
2024/02/14 10:43:05;;;;;;;14.43;9.38;;;333.40;1894.40;;;;;;4843076;29;20057;-81
2024/02/14 10:45:31;;;;;;;28.88;21.88;;;332.90;1894.40;;;;;;4845027;29;20473;-73
2024/02/14 10:47:59;;;;;;;25.80;12.50;;;308.00;1868.80;;;;;;4839310;29;20042;-77
2024/02/14 10:50:31;;;;;;;15.13;9.15;;;332.80;1920.00;;;;;;4839717;29;20427;-74
2024/02/14 10:53:00;;;;;;;10.48;8.40;;;333.20;1920.00;;;;;;4839156;29;20032;-75
2024/02/14 10:55:30;;;;;;;12.50;8.13;;;332.80;1920.00;;;;;;4839316;29;20038;-78
2024/02/14 10:57:58;;;;;;;12.10;8.60;;;308.10;1868.80;;;;;;4839757;29;20026;-79
2024/02/14 11:00:24;;;;;;;12.38;7.20;;;333.00;1894.40;;;;;;4838878;29;20072;-78
2024/02/14 11:02:51;;;;;;;16.35;9.80;;;333.00;1843.20;;;;;;4848597;29;20105;-85
2024/02/14 11:05:26;;;;;;;9.55;7.57;;;333.10;1868.80;;;;;;4836802;29;20033;-86
2024/02/14 11:07:52;;;;;;;19.55;11.98;;;308.00;1894.40;;;;;;4827949;29;20014;-84
2024/02/14 11:10:21;;;;;;;13.77;11.45;;;332.80;1894.40;;;;;;4834891;29;20054;-74
2024/02/14 11:12:51;;;;;;;35.90;29.83;;;332.90;1894.40;;;;;;4838114;29;20581;-73
2024/02/14 11:15:22;;;;;;;9.77;7.15;;;333.00;1894.40;;;;;;4829855;29;20032;-74
2024/02/14 11:17:49;;;;;;;15.25;10.23;;;333.10;1920.00;;;;;;4823833;29;20106;-73
2024/02/14 11:20:21;;;;;;;30.40;19.08;;;333.20;1894.40;;;;;;4825877;29;20459;-74
2024/02/14 11:22:57;;;;;;;28.42;18.13;;;333.20;1894.40;;;;;;4826071;29;20098;-75
2024/02/14 11:25:29;;;;;;;21.02;11.45;;;333.20;1894.40;;;;;;4826076;29;20527;-77
2024/02/14 11:27:56;;;;;;;23.57;15.20;;;333.20;1920.00;;;;;;4826935;29;20042;-84
2024/02/14 11:30:35;;;;;;;10.30;6.22;;;333.10;1843.20;;;;;;4827142;29;20287;-83
2024/02/14 11:33:12;;;;;;;17.08;9.68;;;333.00;1868.80;;;;;;4826633;29;20163;-82
2024/02/14 11:35:45;;;;;;;11.15;6.82;;;333.10;1894.40;;;;;;4825966;29;20030;-81
2024/02/14 11:38:11;;;;;;;;;;;333.00;1868.80;;;;;;4826670;29;20023;-85
2024/02/14 11:40:40;;;;;;;31.40;19.98;;;332.90;1868.80;;;;;;4826634;29;19909;-75
2024/02/14 11:43:20;;;;;;;18.98;13.98;;;332.80;1894.40;;;;;;4825663;29;20026;-79
2024/02/14 11:45:49;;;;;;;15.90;11.10;;;307.90;1868.80;;;;;;4825716;29;20369;-84
2024/02/14 11:48:23;;;;;;;10.85;6.35;;;333.00;1894.40;;;;;;4825219;29;20466;-75
2024/02/14 11:50:51;;;;;;;13.23;8.77;;;307.70;1868.80;;;;;;4825176;29;20030;-75
2024/02/14 11:53:18;;;;;;;16.00;11.77;;;307.80;1868.80;;;;;;4825034;29;20038;-77
2024/02/14 11:55:46;;;;;;;13.68;7.95;;;307.80;1868.80;;;;;;4825274;29;20022;-76
2024/02/14 11:58:13;;;;;;;17.40;8.85;;;307.70;1868.80;;;;;;4825547;29;20034;-76
2024/02/14 12:00:41;;;;;;;10.73;6.15;;;307.80;1868.80;;;;;;4823879;29;20026;-77
2024/02/14 12:03:10;;;;;;;15.18;9.15;;;307.90;1843.20;;;;;;4820023;29;20434;-76
2024/02/14 12:05:37;;;;;;;15.18;10.27;;;308.10;1843.20;;;;;;4837434;29;20053;-77
2024/02/14 12:08:06;;;;;;;16.17;10.27;;;308.00;1817.60;;;;;;4837358;29;20018;-78
2024/02/14 12:10:32;;;;;;;21.98;14.38;;;332.80;1868.80;;;;;;4834763;29;20062;-82
2024/02/14 12:12:59;;;;;;;16.33;14.70;;;332.80;1868.80;;;;;;4838789;29;20034;-78
2024/02/14 12:15:27;;;;;;;9.45;5.82;;;333.00;1894.40;;;;;;4828067;29;20025;-77
2024/02/14 12:17:56;;;;;;;14.82;10.85;;;332.80;1894.40;;;;;;4828054;29;20042;-78
2024/02/14 12:20:23;;;;;;;11.20;6.97;;;333.10;1894.40;;;;;;4838346;29;20218;-80
2024/02/14 12:22:53;;;;;;;27.13;18.55;;;333.10;1868.80;;;;;;4839197;29;20034;-77
2024/02/14 12:25:19;;;;;;;10.52;7.75;;;333.00;1894.40;;;;;;4838977;29;20454;-79
2024/02/14 12:27:51;;;;;;;27.55;16.08;;;308.10;1868.80;;;;;;4838308;29;20528;-76
2024/02/14 12:30:19;;;;;;;37.85;23.75;;;308.00;1868.80;;;;;;4838567;29;20026;-76
2024/02/14 12:32:46;;;;;;;21.27;12.30;;;308.10;1868.80;;;;;;4826548;29;20404;-76
2024/02/14 12:35:11;;;;;;;17.20;10.43;;;332.90;1868.80;;;;;;4838591;29;20541;-76